Bei Facebook empfehlenBei Twitter postenGoogle plusPinterest

Das Wetter im Erzgebirge am 29.07.2017

Wetter und Klima am 29.07.2017 Holzhau im Erzgebirge (630m ü.NN)
Letzte gemessene Temperatur und Uhrzeit der Messung23:45:00 Uhr13.10 °C
Temperatur (Maximum / Höchstwert) und Uhrzeit der Messung16:15:00 Uhr25.40 °C
Temperatur (Minimum / Tiefstwert) und Uhrzeit der Messung04:30:009.50 °C
Errechneter Absolutwert der Temperaturschwankungen zwischen Tmin und Tmax des Tages15.90 K
Errechnete Tagesmitteltemperatur17.38333 °C
Gesamt - Niederschlag des Tages (in flüssiger Form)0.00 Liter / m²
Luftdruck (Maximum / Höchstwert) und Zeitpunkt der Messung12:15:00 Uhr1014.20 hPa
Luftdruck (Minimum / Tiefstwert) und Zeitpunkt der Messung20:45:00 Uhr1013.00 hPa
Errechneter Absolutwert der Luftdruckschwankungen des Tages1.20 hPa
Höchste gemessene Windgeschwindigkeit und Uhrzeit der Messung12:45:00 Uhr62.28 km/h
Errechnete Windhäufigkeit in Relation zu den Messwerten des Tages20.83333 %
Niedrigste Windkühle (Windchill) und Zeitpunkt der Messung04:30:00 Uhr9.50 °C
Taupunkt (Maximum / Höchstwert) und Uhrzeit der Messung16:00:00 Uhr15.70 °C
Taupunkt (Minimum / Tiefstwert) und Uhrzeit der Messung01:30:008.20 °C
Anzahl der automatisch eingelesenen Messwerte 96

Detaillierte Wetter- und Klima- Messwerte für den 29.07.2017 in Holzhau im Erzgebirge (630m ü.NN)
ZeitTemperaturLuftdruckRel. LuftfeuchteWindWindrichtungWindchillTaupunktNiederschlag l/m²
23:45:0013.10 °C1013.20 hPa88.00 %11.20 °C 
23:30:0013.30 °C1013.30 hPa87.00 %11.20 °C 
23:15:0013.60 °C1013.30 hPa87.00 %11.50 °C 
23:00:0013.90 °C1013.30 hPa86.00 %11.60 °C 
22:45:0014.40 °C1013.30 hPa85.00 %11.90 °C 
22:30:0014.70 °C1013.30 hPa85.00 %12.20 °C 
22:15:0015.00 °C1013.50 hPa84.00 %12.30 °C 
22:00:0015.30 °C1013.40 hPa83.00 %12.40 °C 
21:45:0015.80 °C1013.30 hPa82.00 %12.70 °C 
21:30:0016.10 °C1013.40 hPa80.00 %12.70 °C 
21:15:0016.50 °C1013.20 hPa79.00 %12.80 °C 
21:00:0017.30 °C1013.20 hPa75.00 %12.80 °C 
20:45:0018.30 °C1013.00 hPa73.00 %13.40 °C 
20:30:0019.60 °C1013.10 hPa68.00 %13.50 °C 
20:15:0020.80 °C1013.20 hPa65.00 %14.00 °C 
20:00:0022.20 °C1013.10 hPa61.00 %14.30 °C 
19:45:0022.90 °C1013.10 hPa59.00 %14.50 °C 
19:30:0023.30 °C1013.30 hPa58.00 %14.60 °C 
19:15:0023.50 °C1013.30 hPa58.00 %14.80 °C 
19:00:0023.90 °C1013.30 hPa56.00 %14.60 °C 
18:45:0023.90 °C1013.40 hPa56.00 %14.60 °C 
18:30:0023.90 °C1013.40 hPa56.00 %14.60 °C 
18:15:0024.30 °C1013.30 hPa56.00 %15.00 °C 
18:00:0024.30 °C1013.50 hPa56.00 %15.00 °C 
17:45:0024.80 °C1013.50 hPa55.00 %15.10 °C 
17:30:0025.00 °C1013.60 hPa54.00 %15.00 °C 
17:15:0024.60 °C1013.70 hPa55.00 %15.00 °C 
17:00:0025.10 °C1013.50 hPa53.00 %24.48 km/hNW26.80 °C14.80 °C 
16:45:0025.10 °C1013.60 hPa54.00 %6.48 km/hWSW25.10 °C15.10 °C 
16:30:0025.10 °C1013.50 hPa53.00 %19.44 km/hSW26.90 °C14.80 °C 
16:15:0025.40 °C1013.50 hPa54.00 %24.48 km/hWSW27.10 °C15.40 °C 
16:00:0025.40 °C1013.80 hPa55.00 %15.48 km/hWSW25.40 °C15.70 °C 
15:45:0024.40 °C1013.50 hPa56.00 %15.10 °C 
15:30:0025.10 °C1013.70 hPa53.00 %21.96 km/hSSW26.80 °C14.80 °C 
15:15:0025.40 °C1013.70 hPa52.00 %40.32 km/hWSW27.00 °C14.80 °C 
15:00:0024.60 °C1013.80 hPa55.00 %15.00 °C 
14:45:0024.50 °C1013.90 hPa55.00 %9.00 km/hSW24.50 °C14.90 °C 
14:30:0024.30 °C1013.90 hPa56.00 %15.00 °C 
14:15:0023.40 °C1013.90 hPa56.00 %18.00 km/hWSW25.00 °C14.10 °C 
14:00:0023.60 °C1013.70 hPa57.00 %19.44 km/hNW25.20 °C14.60 °C 
13:45:0023.50 °C1013.90 hPa56.00 %33.84 km/hSW24.80 °C14.20 °C 
13:30:0023.30 °C1014.10 hPa57.00 %6.48 km/hWSW23.30 °C14.30 °C 
13:15:0023.30 °C1014.00 hPa58.00 %14.60 °C 
13:00:0022.60 °C1014.10 hPa58.00 %13.90 °C 
12:45:0023.10 °C1014.10 hPa55.00 %62.28 km/hSW24.00 °C13.60 °C 
12:30:0022.90 °C1014.10 hPa62.00 %15.20 °C 
12:15:0021.30 °C1014.20 hPa64.00 %14.20 °C 
12:00:0021.80 °C1014.20 hPa62.00 %14.20 °C 
11:45:0022.00 °C1014.10 hPa62.00 %25.92 km/hSW23.20 °C14.40 °C 
11:30:0022.40 °C1014.20 hPa61.00 %46.80 km/hS23.30 °C14.50 °C 
11:15:0021.60 °C1014.00 hPa65.00 %14.70 °C 
11:00:0021.60 °C1013.80 hPa63.00 %14.30 °C 
10:45:0021.50 °C1013.80 hPa63.00 %14.20 °C 
10:30:0021.00 °C1013.50 hPa66.00 %14.40 km/hSO21.00 °C14.40 °C 
10:15:0020.30 °C1013.30 hPa61.00 %28.44 km/hSW21.10 °C12.50 °C 
10:00:0020.20 °C1013.50 hPa63.00 %12.90 °C 
09:45:0019.90 °C1013.40 hPa64.00 %12.90 °C 
09:30:0019.60 °C1013.60 hPa66.00 %6.48 km/hSSW19.60 °C13.10 °C 
09:15:0019.20 °C1013.50 hPa68.00 %13.20 °C 
09:00:0018.70 °C1013.40 hPa70.00 %27.36 km/hW19.30 °C13.10 °C 
08:45:0018.10 °C1013.50 hPa75.00 %11.52 km/hW18.10 °C13.60 °C 
08:30:0017.10 °C1013.60 hPa81.00 %13.80 °C 
08:15:0015.80 °C1013.50 hPa86.00 %13.50 °C 
08:00:0014.40 °C1013.50 hPa89.00 %12.60 °C 
07:45:0013.10 °C1013.50 hPa90.00 %11.50 °C 
07:30:0012.60 °C1013.60 hPa92.00 %11.30 °C 
07:15:0012.10 °C1013.60 hPa93.00 %11.00 °C 
07:00:0011.60 °C1013.50 hPa93.00 %10.50 °C 
06:45:0011.10 °C1013.20 hPa93.00 %10.00 °C 
06:30:0010.90 °C1013.20 hPa93.00 %9.80 °C 
06:15:0010.50 °C1013.20 hPa93.00 %9.40 °C 
06:00:0010.30 °C1013.40 hPa93.00 %9.20 °C 
05:45:0010.00 °C1013.20 hPa93.00 %8.90 °C 
05:30:009.90 °C1013.20 hPa93.00 %8.80 °C 
05:15:009.90 °C1013.20 hPa93.00 %8.80 °C 
05:00:009.80 °C1013.10 hPa93.00 %8.70 °C 
04:45:009.60 °C1013.00 hPa93.00 %8.50 °C 
04:30:009.50 °C1013.10 hPa93.00 %8.40 °C 
04:15:009.60 °C1013.00 hPa93.00 %8.50 °C 
04:00:009.60 °C1013.10 hPa93.00 %8.50 °C 
03:45:009.60 °C1013.20 hPa92.00 %8.40 °C 
03:30:009.60 °C1013.10 hPa92.00 %8.40 °C 
03:15:009.60 °C1013.20 hPa92.00 %8.40 °C 
03:00:009.50 °C1013.30 hPa92.00 %8.30 °C 
02:45:009.80 °C1013.40 hPa92.00 %8.60 °C 
02:30:009.90 °C1013.50 hPa92.00 %8.70 °C 
02:15:009.90 °C1013.50 hPa92.00 %8.70 °C 
02:00:009.80 °C1013.50 hPa92.00 %8.60 °C 
01:45:009.80 °C1013.50 hPa92.00 %8.60 °C 
01:30:009.60 °C1013.80 hPa91.00 %8.20 °C 
01:15:009.60 °C1013.80 hPa91.00 %8.20 °C 
01:00:009.80 °C1013.60 hPa90.00 %8.20 °C 
00:45:0010.00 °C1013.50 hPa90.00 %8.40 °C 
00:30:0010.40 °C1013.40 hPa90.00 %8.80 °C 
00:15:0010.40 °C1013.40 hPa90.00 %8.80 °C 
00:00:0010.50 °C1013.20 hPa89.00 %8.80 °C 

Permanenter Link zu dieser Seite: Wetter im Erzgebirge am 29.07.2017
Performance-Info: Die Erstellung der Seite / Statistik(en) / Tabelle(n) erforderte 5 Datenbankserver-Abfrage(n) und dauerte 113 Millisekunden. (Dieser Messwert ist von der Gesamt-Auslastung des Servers abhängig.)
Erzgebirge - Wetter | Erzgebirge - Wetter (Mobilgeräte) | Komplette Klimadatenbank